Time;durP1;ratioP1;P1;durP2;ratioP2;P2;SDS_P1;SDS_P2;PMS_P1;PMS_P2;Temp;Humidity;BMP_temperature;BMP_pressure;BME280_temperature;BME280_humidity;BME280_pressure;Samples;Min_cycle;Max_cycle;Signal;HPM_P1;HPM_P2
2023/08/18 00:00:45;;;;;;;6.23;4.27;;;23.40;99.90;;;;;;5015794;28;20323;-86
2023/08/18 00:03:11;;;;;;;6.00;4.13;;;23.40;99.90;;;;;;5016341;28;20366;-86
2023/08/18 00:05:38;;;;;;;6.80;4.33;;;23.40;99.90;;;;;;5015182;28;20204;-86
2023/08/18 00:08:04;;;;;;;6.47;4.60;;;23.40;99.90;;;;;;5011635;28;20418;-86
2023/08/18 00:10:29;;;;;;;7.50;4.47;;;23.40;99.90;;;;;;5024626;28;20627;-86
2023/08/18 00:12:55;;;;;;;5.20;4.20;;;23.50;99.90;;;;;;5029819;28;20217;-86
2023/08/18 00:15:21;;;;;;;5.33;4.50;;;23.40;99.90;;;;;;5010875;28;20196;-86
2023/08/18 00:17:47;;;;;;;7.70;4.83;;;23.40;99.90;;;;;;5014207;28;20177;-86
2023/08/18 00:20:13;;;;;;;5.97;4.33;;;23.40;99.90;;;;;;5010468;28;20185;-86
2023/08/18 00:22:39;;;;;;;6.27;4.47;;;23.40;99.90;;;;;;5019716;28;20185;-86
2023/08/18 00:25:05;;;;;;;5.80;4.33;;;23.30;99.90;;;;;;5024983;28;20196;-86
2023/08/18 00:27:31;;;;;;;6.07;4.40;;;23.30;99.90;;;;;;5019778;28;20188;-86
2023/08/18 00:29:57;;;;;;;5.50;4.20;;;23.40;99.90;;;;;;5007337;28;20185;-86
2023/08/18 00:32:22;;;;;;;5.30;4.33;;;23.30;99.90;;;;;;5015649;28;20463;-86
2023/08/18 00:34:48;;;;;;;6.03;4.13;;;23.30;99.90;;;;;;5002784;28;20227;-86
2023/08/18 00:37:15;;;;;;;6.57;4.27;;;23.30;99.90;;;;;;5010769;28;20280;-86
2023/08/18 00:39:41;;;;;;;5.43;4.17;;;23.30;99.90;;;;;;5006454;28;20236;-86
2023/08/18 00:42:07;;;;;;;6.07;4.13;;;23.30;99.90;;;;;;5012119;28;20205;-86
2023/08/18 00:44:32;;;;;;;6.20;4.07;;;23.30;99.90;;;;;;5007822;28;20299;-86
2023/08/18 00:46:59;;;;;;;6.23;4.40;;;23.20;99.90;;;;;;5010766;28;20176;-86
2023/08/18 00:49:25;;;;;;;5.40;4.17;;;23.30;99.90;;;;;;5025271;28;20393;-86
2023/08/18 00:51:51;;;;;;;5.90;4.40;;;23.30;99.90;;;;;;5010681;28;20200;-86
2023/08/18 00:54:17;;;;;;;5.27;4.37;;;23.30;99.90;;;;;;5018604;28;20213;-86
2023/08/18 00:56:45;;;;;;;6.10;4.47;;;23.30;99.90;;;;;;5031904;28;20509;-86
2023/08/18 00:59:11;;;;;;;5.33;4.20;;;23.20;99.90;;;;;;5019798;28;20184;-86
2023/08/18 01:01:38;;;;;;;5.30;4.07;;;23.20;99.90;;;;;;5016835;28;20188;-86
2023/08/18 01:04:04;;;;;;;5.93;4.30;;;23.20;99.90;;;;;;5026450;28;20189;-86
2023/08/18 01:06:31;;;;;;;5.00;4.40;;;23.20;99.90;;;;;;5022519;28;20305;-86
2023/08/18 01:08:57;;;;;;;5.83;4.23;;;23.20;99.90;;;;;;5021487;28;20406;-87
2023/08/18 01:11:31;;;;;;;6.10;4.30;;;23.20;99.90;;;;;;5023800;28;20281;-86
2023/08/18 01:14:18;;;;;;;4.83;3.93;;;23.10;99.90;;;;;;5032449;28;20240;-86
2023/08/18 01:16:51;;;;;;;5.23;4.10;;;23.10;99.90;;;;;;5005057;28;20196;-87
2023/08/18 01:19:21;;;;;;;4.47;3.80;;;23.10;99.90;;;;;;5034934;28;20183;-86
2023/08/18 01:21:53;;;;;;;4.83;3.80;;;23.10;99.90;;;;;;5024690;28;20207;-86
2023/08/18 01:24:20;;;;;;;4.90;3.93;;;23.10;99.90;;;;;;5018079;28;20193;-86
2023/08/18 01:26:47;;;;;;;4.77;4.27;;;23.20;99.90;;;;;;5003565;28;20182;-86
2023/08/18 01:29:12;;;;;;;4.07;3.70;;;23.10;99.90;;;;;;5014171;28;20181;-87
2023/08/18 01:31:39;;;;;;;5.23;3.87;;;23.20;99.90;;;;;;5010302;28;20182;-86
2023/08/18 01:34:09;;;;;;;4.93;3.90;;;23.10;99.90;;;;;;5015298;28;20243;-86
2023/08/18 01:36:41;;;;;;;4.40;3.70;;;23.20;99.90;;;;;;5010763;28;20192;-87
2023/08/18 01:39:11;;;;;;;5.23;3.60;;;23.10;99.90;;;;;;5017629;28;20266;-86
2023/08/18 01:41:37;;;;;;;4.43;3.73;;;23.10;99.90;;;;;;5011758;28;20188;-86
2023/08/18 01:44:06;;;;;;;4.97;4.00;;;23.10;99.90;;;;;;5020484;28;20176;-86
2023/08/18 01:46:32;;;;;;;5.37;4.07;;;23.10;99.90;;;;;;5005987;28;20182;-86
2023/08/18 01:48:58;;;;;;;5.00;3.93;;;23.10;99.90;;;;;;5014476;28;20346;-86
2023/08/18 01:51:23;;;;;;;5.87;4.40;;;23.20;99.90;;;;;;5010590;28;20196;-86
2023/08/18 01:53:49;;;;;;;5.40;3.93;;;23.10;99.90;;;;;;5015673;28;20216;-86
2023/08/18 01:56:15;;;;;;;4.40;3.87;;;23.10;99.90;;;;;;5018764;28;20484;-86
2023/08/18 01:58:41;;;;;;;4.20;3.60;;;23.10;99.90;;;;;;5009497;28;20220;-86
2023/08/18 02:01:07;;;;;;;4.47;3.70;;;23.10;99.90;;;;;;5023436;28;20449;-86
2023/08/18 02:03:33;;;;;;;4.43;3.43;;;23.10;99.90;;;;;;5015977;28;20598;-86
2023/08/18 02:05:58;;;;;;;4.23;3.83;;;23.10;99.90;;;;;;5022439;28;20187;-86
2023/08/18 02:08:25;;;;;;;4.23;3.73;;;23.10;99.90;;;;;;5004449;28;20250;-86
2023/08/18 02:10:51;;;;;;;4.10;3.70;;;23.20;99.90;;;;;;5013290;28;20271;-87
2023/08/18 02:13:16;;;;;;;4.20;3.50;;;23.10;99.90;;;;;;5024658;28;20271;-86
2023/08/18 02:15:48;;;;;;;4.77;4.00;;;23.10;99.90;;;;;;5033172;28;20237;-86
2023/08/18 02:18:14;;;;;;;4.57;3.50;;;23.10;99.90;;;;;;5017328;28;20238;-87
2023/08/18 02:20:40;;;;;;;4.27;3.57;;;23.10;99.90;;;;;;5035860;28;20272;-87
2023/08/18 02:23:06;;;;;;;4.37;3.57;;;23.10;99.90;;;;;;5032951;28;20605;-86
2023/08/18 02:25:31;;;;;;;4.97;4.00;;;23.10;99.90;;;;;;5020654;28;20638;-87
2023/08/18 02:27:57;;;;;;;4.20;3.80;;;23.10;99.90;;;;;;5033544;28;20184;-86
2023/08/18 02:30:23;;;;;;;4.03;3.60;;;23.00;99.90;;;;;;5027548;28;20176;-86
2023/08/18 02:32:48;;;;;;;4.57;3.33;;;23.00;99.90;;;;;;5014309;28;20467;-86
2023/08/18 02:35:14;;;;;;;3.40;3.10;;;23.10;99.90;;;;;;5015094;28;20208;-86
2023/08/18 02:37:40;;;;;;;3.93;3.33;;;23.10;99.90;;;;;;5012230;28;20177;-86
2023/08/18 02:40:09;;;;;;;4.60;3.97;;;23.00;99.90;;;;;;5032920;28;20292;-86
2023/08/18 02:42:35;;;;;;;4.47;3.30;;;23.00;99.90;;;;;;5018415;28;20447;-86
2023/08/18 02:45:02;;;;;;;5.43;3.57;;;23.00;99.90;;;;;;5010908;28;20217;-86
2023/08/18 02:47:28;;;;;;;4.00;3.60;;;23.00;99.90;;;;;;5022021;28;20195;-86
2023/08/18 02:49:53;;;;;;;4.40;3.60;;;23.00;99.90;;;;;;5027354;28;20189;-86
2023/08/18 02:52:19;;;;;;;4.07;3.60;;;23.00;99.90;;;;;;5045116;28;20274;-86
2023/08/18 02:54:45;;;;;;;4.47;3.53;;;23.00;99.90;;;;;;5009636;28;20605;-86
2023/08/18 02:57:11;;;;;;;3.53;3.23;;;23.00;99.90;;;;;;5017534;28;20286;-86
2023/08/18 02:59:36;;;;;;;3.97;3.37;;;22.90;99.90;;;;;;5010432;28;20181;-86
2023/08/18 03:02:02;;;;;;;4.27;3.87;;;23.00;99.90;;;;;;5014599;28;20551;-86
2023/08/18 03:04:28;;;;;;;4.30;3.87;;;22.90;99.90;;;;;;5028838;28;20181;-86
2023/08/18 03:06:55;;;;;;;4.20;3.40;;;22.90;99.90;;;;;;5019268;28;20176;-86
2023/08/18 03:09:20;;;;;;;5.53;3.27;;;22.90;99.90;;;;;;5014440;28;20181;-86
2023/08/18 03:11:46;;;;;;;6.00;3.60;;;23.00;99.90;;;;;;5018754;28;20439;-86
2023/08/18 03:14:12;;;;;;;4.50;3.83;;;23.00;99.90;;;;;;5037871;28;20210;-86
2023/08/18 03:16:38;;;;;;;4.27;3.17;;;23.00;99.90;;;;;;5023067;28;20434;-86
2023/08/18 03:19:04;;;;;;;4.57;3.90;;;22.90;99.90;;;;;;5022320;28;20177;-86
2023/08/18 03:21:29;;;;;;;3.97;3.37;;;22.90;99.90;;;;;;5028044;28;20180;-86
2023/08/18 03:23:55;;;;;;;3.73;3.33;;;22.90;99.90;;;;;;5020265;28;20188;-86
2023/08/18 03:26:21;;;;;;;3.57;3.27;;;22.90;99.90;;;;;;5007906;28;20247;-86
2023/08/18 03:28:47;;;;;;;4.07;3.10;;;22.90;99.90;;;;;;5022669;28;20644;-86
2023/08/18 03:31:12;;;;;;;3.60;3.23;;;22.90;99.90;;;;;;5006723;28;20691;-86
2023/08/18 03:33:38;;;;;;;3.53;3.00;;;22.90;99.90;;;;;;5016692;28;20486;-86
2023/08/18 03:36:04;;;;;;;3.77;3.37;;;22.90;99.90;;;;;;5011105;28;20185;-86
2023/08/18 03:38:30;;;;;;;4.00;3.47;;;22.90;99.90;;;;;;5019458;28;20567;-86
2023/08/18 03:41:02;;;;;;;3.70;3.33;;;22.90;99.90;;;;;;5026677;28;20189;-85
2023/08/18 03:43:27;;;;;;;4.00;3.47;;;22.90;99.90;;;;;;5016110;28;20177;-86
2023/08/18 03:45:57;;;;;;;3.40;3.10;;;22.90;99.90;;;;;;5026992;28;20477;-86
2023/08/18 03:48:23;;;;;;;3.43;3.13;;;22.90;99.90;;;;;;5016604;28;20251;-86
2023/08/18 03:50:49;;;;;;;3.47;3.17;;;22.90;99.90;;;;;;5007959;28;20273;-86
2023/08/18 03:53:15;;;;;;;3.40;3.07;;;22.90;99.90;;;;;;5033853;28;20329;-86
2023/08/18 03:55:41;;;;;;;3.30;3.00;;;22.90;99.90;;;;;;5019563;28;20211;-86
2023/08/18 03:58:07;;;;;;;3.60;3.30;;;22.90;99.90;;;;;;5015211;28;20173;-86
2023/08/18 04:00:33;;;;;;;4.10;3.40;;;22.90;99.90;;;;;;5021296;28;20174;-86
2023/08/18 04:02:58;;;;;;;3.20;2.80;;;22.90;99.90;;;;;;5012651;28;20168;-86
2023/08/18 04:05:24;;;;;;;4.10;3.27;;;22.80;99.90;;;;;;5019640;28;20339;-86
2023/08/18 04:07:51;;;;;;;3.33;3.00;;;22.90;99.90;;;;;;5015743;28;20188;-86
2023/08/18 04:10:17;;;;;;;3.40;3.10;;;22.80;99.90;;;;;;5015636;28;20206;-86
2023/08/18 04:12:42;;;;;;;4.47;3.20;;;22.80;99.90;;;;;;5005058;28;20460;-86
2023/08/18 04:15:08;;;;;;;3.90;2.90;;;22.80;99.90;;;;;;5015288;28;20228;-86
2023/08/18 04:17:34;;;;;;;4.13;3.03;;;22.80;99.90;;;;;;5023095;28;20204;-86
2023/08/18 04:20:00;;;;;;;4.00;3.20;;;22.80;99.90;;;;;;5010587;28;20181;-86
2023/08/18 04:22:25;;;;;;;3.43;3.13;;;22.80;99.90;;;;;;5019050;28;20184;-86
2023/08/18 04:24:51;;;;;;;2.77;2.57;;;22.80;99.90;;;;;;5035730;28;20183;-86
2023/08/18 04:27:17;;;;;;;3.13;2.90;;;22.80;99.90;;;;;;5005536;28;20636;-86
2023/08/18 04:29:43;;;;;;;2.70;2.50;;;22.80;99.90;;;;;;5010795;28;20172;-87
2023/08/18 04:32:08;;;;;;;3.10;2.80;;;22.80;99.90;;;;;;5026282;28;20181;-86
2023/08/18 04:34:34;;;;;;;3.20;2.90;;;22.90;99.90;;;;;;5011083;28;20616;-87
2023/08/18 04:37:00;;;;;;;3.07;2.77;;;23.00;99.90;;;;;;5009277;28;20186;-86
2023/08/18 04:39:25;;;;;;;2.73;2.47;;;23.00;99.90;;;;;;5013540;28;20221;-86
2023/08/18 04:41:51;;;;;;;3.33;2.90;;;22.90;99.90;;;;;;5015776;28;20247;-86
2023/08/18 04:44:17;;;;;;;2.93;2.63;;;22.90;99.90;;;;;;5008768;28;20181;-86
2023/08/18 04:46:43;;;;;;;3.70;3.10;;;22.90;99.90;;;;;;5032763;28;20437;-86
2023/08/18 04:49:08;;;;;;;3.43;2.80;;;22.90;99.90;;;;;;5003491;28;20194;-86
2023/08/18 04:51:34;;;;;;;5.47;2.90;;;22.90;99.90;;;;;;5017061;28;20329;-86
2023/08/18 04:54:00;;;;;;;2.77;2.53;;;22.90;99.90;;;;;;5001742;28;20657;-86
2023/08/18 04:56:26;;;;;;;4.00;2.70;;;22.90;99.90;;;;;;5013257;28;20551;-86
2023/08/18 04:58:52;;;;;;;3.13;2.83;;;22.90;99.90;;;;;;5022076;28;20539;-86
2023/08/18 05:01:18;;;;;;;2.70;2.50;;;22.90;99.90;;;;;;5011963;28;20211;-86
2023/08/18 05:03:44;;;;;;;3.37;2.83;;;22.90;99.90;;;;;;5015292;28;20180;-86
2023/08/18 05:06:12;;;;;;;2.90;2.60;;;22.90;99.90;;;;;;5016753;28;20192;-86
2023/08/18 05:08:40;;;;;;;3.80;2.60;;;22.90;99.90;;;;;;4998083;28;20351;-86
2023/08/18 05:11:08;;;;;;;2.97;2.67;;;22.90;99.90;;;;;;4999589;28;20182;-86
2023/08/18 05:13:35;;;;;;;2.83;2.63;;;22.90;99.90;;;;;;5019123;28;20406;-85
2023/08/18 05:16:01;;;;;;;3.13;2.83;;;22.90;99.90;;;;;;4999163;28;20468;-86
2023/08/18 05:18:30;;;;;;;3.47;2.90;;;22.90;99.90;;;;;;4998607;28;20197;-86
2023/08/18 05:20:59;;;;;;;3.80;3.13;;;22.90;99.90;;;;;;4998529;28;20211;-86
2023/08/18 05:23:25;;;;;;;3.27;2.70;;;22.90;99.90;;;;;;5003492;28;20184;-86
2023/08/18 05:25:56;;;;;;;3.03;2.67;;;22.90;99.90;;;;;;5000672;28;20189;-85
2023/08/18 05:28:23;;;;;;;2.90;2.60;;;23.00;99.90;;;;;;4999877;28;20263;-85
2023/08/18 05:30:50;;;;;;;3.00;2.70;;;23.00;99.90;;;;;;5002452;28;20201;-85
2023/08/18 05:33:16;;;;;;;3.73;2.80;;;23.00;99.90;;;;;;5002890;28;20197;-86
2023/08/18 05:35:42;;;;;;;3.30;3.00;;;23.00;99.90;;;;;;4998296;28;20566;-85
2023/08/18 05:38:12;;;;;;;3.03;2.83;;;23.00;99.90;;;;;;4997747;28;20207;-86
2023/08/18 05:40:48;;;;;;;3.10;2.80;;;23.00;99.90;;;;;;5016273;28;20267;-85
2023/08/18 05:43:16;;;;;;;3.00;2.70;;;22.90;99.90;;;;;;4995197;28;20591;-85
2023/08/18 05:45:46;;;;;;;2.70;2.50;;;22.90;99.90;;;;;;5008031;28;20182;-85
2023/08/18 05:48:13;;;;;;;2.70;2.50;;;22.90;99.90;;;;;;4993329;28;20398;-85
2023/08/18 05:50:39;;;;;;;2.77;2.57;;;22.90;99.90;;;;;;4994564;28;20192;-85
2023/08/18 05:53:05;;;;;;;3.03;2.73;;;22.80;99.90;;;;;;4996510;28;20580;-85
2023/08/18 05:55:31;;;;;;;2.73;2.50;;;22.90;99.90;;;;;;4994239;28;20252;-85
2023/08/18 05:58:02;;;;;;;2.63;2.43;;;22.90;99.90;;;;;;4996367;28;20358;-85
2023/08/18 06:00:29;;;;;;;2.40;2.20;;;22.80;99.90;;;;;;5015648;28;20574;-85
2023/08/18 06:02:55;;;;;;;2.97;2.40;;;22.90;99.90;;;;;;5015165;28;20289;-86
2023/08/18 06:05:22;;;;;;;2.77;2.57;;;22.90;99.90;;;;;;5015237;28;20181;-85
2023/08/18 06:07:48;;;;;;;2.73;2.53;;;22.90;99.90;;;;;;4998295;28;20651;-85
2023/08/18 06:10:14;;;;;;;2.57;2.37;;;22.90;99.90;;;;;;5012429;28;20235;-85
2023/08/18 06:12:40;;;;;;;2.67;2.47;;;22.90;99.90;;;;;;4995425;28;20200;-85
2023/08/18 06:15:08;;;;;;;2.90;2.27;;;22.90;99.90;;;;;;4996482;28;20500;-86
2023/08/18 06:17:34;;;;;;;2.90;2.30;;;22.90;99.90;;;;;;4995415;28;20188;-86
2023/08/18 06:20:00;;;;;;;2.67;2.40;;;22.90;99.90;;;;;;4995045;28;20188;-86
2023/08/18 06:22:26;;;;;;;3.07;2.30;;;22.90;99.90;;;;;;4995509;28;20715;-86
2023/08/18 06:24:51;;;;;;;2.37;2.10;;;22.90;99.90;;;;;;5010727;28;20271;-86
2023/08/18 06:27:17;;;;;;;2.40;2.20;;;22.90;99.90;;;;;;4993146;28;20197;-85
2023/08/18 06:29:43;;;;;;;2.40;2.20;;;23.00;99.90;;;;;;5012023;28;20551;-85
2023/08/18 06:32:09;;;;;;;2.50;2.30;;;23.00;99.90;;;;;;5013472;28;20188;-86
2023/08/18 06:34:35;;;;;;;2.20;2.00;;;22.90;99.90;;;;;;5013333;28;20221;-85
2023/08/18 06:37:01;;;;;;;2.63;2.40;;;23.00;99.90;;;;;;4995057;28;20224;-85
2023/08/18 06:39:27;;;;;;;2.40;2.20;;;22.90;99.90;;;;;;5016638;28;20185;-85
2023/08/18 06:41:54;;;;;;;2.43;2.23;;;22.90;99.90;;;;;;4995127;28;20272;-85
2023/08/18 06:44:20;;;;;;;2.43;2.23;;;22.90;99.90;;;;;;4997652;28;20262;-85
2023/08/18 06:46:46;;;;;;;2.40;2.20;;;22.90;99.90;;;;;;4994340;28;20189;-85
2023/08/18 06:49:12;;;;;;;2.20;2.00;;;22.90;99.90;;;;;;4997284;28;20181;-85
2023/08/18 06:51:38;;;;;;;2.20;2.00;;;23.00;99.90;;;;;;4993794;28;20251;-86
2023/08/18 06:54:04;;;;;;;2.20;2.00;;;23.00;99.90;;;;;;4994352;28;20587;-86
2023/08/18 06:56:30;;;;;;;1.93;1.73;;;22.90;99.90;;;;;;4995313;28;20401;-86
2023/08/18 06:58:56;;;;;;;2.13;1.93;;;22.90;99.90;;;;;;4995871;28;20189;-86
2023/08/18 07:01:22;;;;;;;2.10;1.90;;;23.00;99.90;;;;;;4998354;28;20232;-86
2023/08/18 07:03:48;;;;;;;2.27;2.07;;;22.90;99.90;;;;;;4998317;28;20572;-86
2023/08/18 07:06:14;;;;;;;2.00;1.90;;;22.90;99.90;;;;;;5000981;28;20213;-86
2023/08/18 07:08:40;;;;;;;2.60;2.40;;;23.00;99.90;;;;;;5000704;28;20189;-86
2023/08/18 07:11:05;;;;;;;5.53;1.90;;;23.00;99.90;;;;;;5017150;28;20212;-86
2023/08/18 07:13:31;;;;;;;2.00;1.90;;;23.00;99.90;;;;;;5001328;28;20253;-85
2023/08/18 07:15:57;;;;;;;2.77;2.10;;;23.10;99.90;;;;;;4998913;28;20481;-86
2023/08/18 07:18:23;;;;;;;2.17;2.00;;;23.10;99.90;;;;;;5002529;28;20188;-86
2023/08/18 07:20:49;;;;;;;2.30;2.10;;;23.10;99.90;;;;;;5003057;28;20185;-86
2023/08/18 07:23:15;;;;;;;2.53;2.13;;;23.10;99.90;;;;;;5001308;28;20181;-86
2023/08/18 07:25:42;;;;;;;2.33;2.13;;;23.10;99.90;;;;;;5011604;28;20208;-86
2023/08/18 07:28:08;;;;;;;2.07;1.97;;;23.10;99.90;;;;;;5018772;28;20176;-86
2023/08/18 07:30:34;;;;;;;2.20;2.00;;;23.10;99.90;;;;;;5000284;28;20533;-86
2023/08/18 07:32:59;;;;;;;2.33;2.03;;;23.10;99.90;;;;;;4995475;28;20228;-86
2023/08/18 07:35:25;;;;;;;2.20;2.00;;;23.10;99.90;;;;;;4998461;28;20212;-86
2023/08/18 07:37:52;;;;;;;2.20;2.00;;;23.10;99.90;;;;;;5016001;28;20375;-85
2023/08/18 07:40:19;;;;;;;2.30;2.10;;;23.10;99.90;;;;;;4995903;28;20317;-85
2023/08/18 07:42:44;;;;;;;2.10;1.90;;;23.10;99.90;;;;;;4999298;28;20188;-86
2023/08/18 07:45:10;;;;;;;2.10;1.90;;;23.00;99.90;;;;;;4996464;28;20185;-85
2023/08/18 07:47:43;;;;;;;2.27;1.87;;;23.00;99.90;;;;;;4994037;28;20753;-85
2023/08/18 07:50:10;;;;;;;1.87;1.77;;;23.10;99.90;;;;;;5014162;28;20514;-85
2023/08/18 07:52:37;;;;;;;2.17;2.03;;;23.00;99.90;;;;;;4999189;28;20185;-85
2023/08/18 07:55:05;;;;;;;2.20;2.00;;;23.00;99.90;;;;;;4999887;28;20641;-86
2023/08/18 07:57:32;;;;;;;1.97;1.87;;;23.00;99.90;;;;;;4998409;28;20196;-86
2023/08/18 07:59:58;;;;;;;3.13;1.97;;;23.00;99.90;;;;;;4999599;28;20181;-86
2023/08/18 08:02:23;;;;;;;2.60;2.00;;;23.00;99.90;;;;;;5017692;28;20429;-85
2023/08/18 08:04:50;;;;;;;2.00;1.90;;;23.10;99.90;;;;;;4997840;28;20251;-85
2023/08/18 08:07:16;;;;;;;2.27;2.07;;;23.10;99.90;;;;;;5021260;28;20188;-86
2023/08/18 08:09:42;;;;;;;2.30;2.10;;;23.10;99.90;;;;;;5002273;28;20296;-86
2023/08/18 08:12:08;;;;;;;2.10;1.90;;;23.10;99.90;;;;;;5016322;28;20189;-86
2023/08/18 08:14:34;;;;;;;2.17;1.97;;;23.20;99.90;;;;;;5007718;28;20209;-86
2023/08/18 08:17:00;;;;;;;2.40;2.20;;;23.20;99.90;;;;;;5002471;28;20404;-86
2023/08/18 08:19:26;;;;;;;2.37;2.17;;;23.20;99.90;;;;;;5017312;28;20475;-86
2023/08/18 08:21:52;;;;;;;2.30;2.10;;;23.30;99.90;;;;;;5000844;28;20256;-85
2023/08/18 08:24:19;;;;;;;2.27;2.07;;;23.30;99.90;;;;;;4996732;28;20189;-86
2023/08/18 08:26:45;;;;;;;2.23;2.03;;;23.30;99.90;;;;;;5016565;28;20208;-86
2023/08/18 08:29:11;;;;;;;1.83;1.73;;;23.30;99.90;;;;;;4997070;28;20555;-86
2023/08/18 08:31:37;;;;;;;2.03;1.93;;;23.40;99.90;;;;;;4998121;28;20192;-86
2023/08/18 08:34:03;;;;;;;2.37;1.90;;;23.40;99.90;;;;;;5004998;28;20228;-86
2023/08/18 08:36:32;;;;;;;2.00;1.80;;;23.50;99.90;;;;;;5000210;28;20224;-86
2023/08/18 08:39:02;;;;;;;2.00;1.80;;;23.60;99.90;;;;;;5016330;28;20201;-86
2023/08/18 08:41:28;;;;;;;2.30;2.10;;;23.60;99.90;;;;;;5019834;28;20203;-86
2023/08/18 08:43:54;;;;;;;2.20;2.00;;;23.60;99.90;;;;;;4995882;28;20240;-85
2023/08/18 08:46:21;;;;;;;1.90;1.80;;;23.70;99.90;;;;;;5013035;28;20322;-86
2023/08/18 08:48:47;;;;;;;2.30;1.93;;;23.70;99.90;;;;;;4999270;28;20181;-85
2023/08/18 08:51:15;;;;;;;2.20;2.00;;;23.70;99.90;;;;;;4996211;28;20275;-86
2023/08/18 08:53:47;;;;;;;2.03;1.90;;;23.80;99.90;;;;;;4997544;28;20521;-86
2023/08/18 08:56:16;;;;;;;1.97;1.87;;;23.80;99.90;;;;;;4995786;28;20480;-86
2023/08/18 08:58:43;;;;;;;2.30;2.00;;;23.80;99.90;;;;;;4999880;28;20169;-85
2023/08/18 09:01:09;;;;;;;2.20;2.00;;;23.80;99.90;;;;;;4994513;28;20469;-86
2023/08/18 09:03:36;;;;;;;2.17;1.97;;;23.80;99.90;;;;;;4994691;28;20277;-85
2023/08/18 09:06:01;;;;;;;2.10;1.60;;;23.80;99.90;;;;;;4995896;28;20182;-86
2023/08/18 09:08:27;;;;;;;2.27;1.90;;;23.90;99.90;;;;;;5014501;28;20188;-85
2023/08/18 09:10:54;;;;;;;2.00;1.90;;;23.90;99.90;;;;;;4994951;28;20285;-85
2023/08/18 09:13:20;;;;;;;2.17;1.97;;;23.90;99.90;;;;;;4996301;28;20277;-86
2023/08/18 09:15:46;;;;;;;1.80;1.70;;;24.00;99.90;;;;;;4994737;28;20323;-85
2023/08/18 09:18:13;;;;;;;2.50;2.00;;;24.00;99.90;;;;;;5011617;28;20180;-85
2023/08/18 09:20:44;;;;;;;2.00;1.90;;;24.10;99.90;;;;;;4999112;28;20184;-86
2023/08/18 09:23:18;;;;;;;2.10;1.90;;;24.10;99.90;;;;;;5012230;28;20229;-85
2023/08/18 09:25:44;;;;;;;1.90;1.80;;;24.10;99.90;;;;;;5012438;28;20169;-85
2023/08/18 09:28:09;;;;;;;2.10;1.90;;;24.20;99.90;;;;;;5004998;28;20354;-85
2023/08/18 09:30:35;;;;;;;1.97;1.87;;;24.20;99.90;;;;;;4998457;28;20220;-85
2023/08/18 09:33:02;;;;;;;2.07;1.87;;;24.20;99.90;;;;;;5013962;28;20192;-85
2023/08/18 09:35:35;;;;;;;2.27;1.90;;;24.20;99.90;;;;;;4997431;28;20236;-86
2023/08/18 09:38:02;;;;;;;1.90;1.80;;;24.30;99.90;;;;;;5012901;28;20173;-86
2023/08/18 09:40:29;;;;;;;1.80;1.70;;;24.40;99.90;;;;;;4998385;28;20184;-86
2023/08/18 09:42:57;;;;;;;2.20;1.90;;;24.40;99.90;;;;;;5018505;28;20265;-86
2023/08/18 09:45:26;;;;;;;2.20;2.00;;;24.50;99.90;;;;;;4997123;28;20180;-86
2023/08/18 09:47:55;;;;;;;2.03;1.83;;;24.60;99.90;;;;;;4997699;28;20586;-86
2023/08/18 09:50:27;;;;;;;2.10;1.80;;;24.70;99.90;;;;;;4997199;28;20180;-86
2023/08/18 09:52:54;;;;;;;2.07;1.93;;;24.80;99.90;;;;;;4996441;28;20182;-86
2023/08/18 09:55:49;;;;;;;2.22;2.03;;;24.80;99.80;;;;;;4996368;28;20780;-86
2023/08/18 09:58:28;;;;;;;2.00;1.80;;;24.90;99.70;;;;;;4999083;28;20188;-86
2023/08/18 10:00:57;;;;;;;1.90;1.80;;;25.00;99.40;;;;;;4997694;28;20305;-86
2023/08/18 10:03:26;;;;;;;2.30;2.03;;;25.10;99.40;;;;;;4995260;28;20266;-86
2023/08/18 10:05:53;;;;;;;2.38;2.17;;;25.10;99.40;;;;;;5016557;28;20620;-84
2023/08/18 10:08:22;;;;;;;2.10;1.90;;;25.10;99.30;;;;;;5014674;28;20181;-86
2023/08/18 10:10:50;;;;;;;2.67;2.20;;;25.10;99.30;;;;;;4996818;28;20223;-86
2023/08/18 10:13:16;;;;;;;2.30;2.10;;;25.10;99.40;;;;;;5014157;28;20264;-86
2023/08/18 10:15:43;;;;;;;2.42;2.22;;;25.10;99.70;;;;;;5011443;28;20212;-86
2023/08/18 10:18:11;;;;;;;2.33;2.13;;;25.10;99.70;;;;;;4995493;28;20288;-86
2023/08/18 10:20:58;;;;;;;2.20;1.90;;;25.10;99.50;;;;;;5014900;28;20289;-86
2023/08/18 10:23:25;;;;;;;2.50;2.30;;;25.20;99.60;;;;;;5012365;28;20382;-86
2023/08/18 10:25:52;;;;;;;2.30;2.10;;;25.20;99.80;;;;;;5004086;28;20208;-86
2023/08/18 10:28:19;;;;;;;2.10;2.00;;;25.20;99.90;;;;;;4996597;28;20529;-86
2023/08/18 10:30:57;;;;;;;2.95;2.38;;;25.30;99.80;;;;;;4993785;28;20236;-86
2023/08/18 10:33:49;;;;;;;2.57;2.23;;;25.30;99.70;;;;;;4994520;28;20197;-86
2023/08/18 10:36:28;;;;;;;2.43;2.23;;;25.40;99.70;;;;;;5014239;28;20201;-86
2023/08/18 10:38:54;;;;;;;2.10;1.92;;;25.40;99.80;;;;;;5013585;28;20180;-86
2023/08/18 10:41:30;;;;;;;2.50;2.30;;;25.40;99.70;;;;;;4998828;28;20413;-86
2023/08/18 10:43:58;;;;;;;2.33;2.13;;;25.50;99.70;;;;;;5018115;28;20172;-86
2023/08/18 10:46:37;;;;;;;2.30;2.10;;;25.50;99.60;;;;;;5016027;28;20248;-85
2023/08/18 10:49:03;;;;;;;2.47;2.27;;;25.60;99.50;;;;;;5014083;28;20277;-86
2023/08/18 10:51:30;;;;;;;2.50;2.30;;;25.60;99.30;;;;;;4997171;28;20211;-85
2023/08/18 10:53:56;;;;;;;2.50;2.30;;;25.60;99.40;;;;;;4998035;28;20207;-85
2023/08/18 10:56:22;;;;;;;2.47;2.28;;;25.60;99.60;;;;;;5011692;28;20593;-87
2023/08/18 10:58:48;;;;;;;2.17;1.92;;;25.60;99.50;;;;;;4998073;28;20249;-86
2023/08/18 11:01:15;;;;;;;2.47;2.28;;;25.70;99.60;;;;;;5010272;28;20604;-86
2023/08/18 11:03:41;;;;;;;2.40;2.08;;;25.70;99.40;;;;;;4995352;28;20495;-86
2023/08/18 11:06:09;;;;;;;2.20;2.00;;;25.70;99.30;;;;;;5016541;28;20429;-86
2023/08/18 11:08:39;;;;;;;2.40;2.20;;;25.70;99.70;;;;;;5007423;28;20266;-86
2023/08/18 11:11:05;;;;;;;3.47;2.20;;;25.70;99.80;;;;;;5007121;28;20200;-85
2023/08/18 11:13:30;;;;;;;2.35;2.15;;;25.70;99.70;;;;;;4994974;28;20182;-86
2023/08/18 11:15:57;;;;;;;2.25;2.05;;;25.70;99.70;;;;;;4998523;28;20629;-85
2023/08/18 11:18:23;;;;;;;2.50;2.30;;;25.80;99.90;;;;;;5004034;28;20308;-86
2023/08/18 11:20:52;;;;;;;2.60;2.40;;;25.80;99.70;;;;;;4999824;28;20181;-85
2023/08/18 11:23:19;;;;;;;2.60;2.23;;;25.80;99.80;;;;;;4995969;28;20193;-85
2023/08/18 11:25:45;;;;;;;2.47;2.28;;;25.80;99.90;;;;;;4999508;28;20380;-85
2023/08/18 11:28:13;;;;;;;2.88;2.55;;;25.80;99.90;;;;;;5013727;28;20348;-86
2023/08/18 11:30:39;;;;;;;2.60;2.40;;;25.80;99.90;;;;;;5000155;28;20462;-86
2023/08/18 11:33:05;;;;;;;2.50;2.30;;;25.80;99.90;;;;;;4997049;28;20181;-86
2023/08/18 11:35:32;;;;;;;2.30;2.13;;;25.80;99.90;;;;;;5000778;28;20489;-86
2023/08/18 11:37:57;;;;;;;2.60;2.40;;;25.90;99.90;;;;;;4995025;28;20350;-85
2023/08/18 11:40:24;;;;;;;2.33;2.13;;;25.90;99.90;;;;;;4992749;28;20244;-85
2023/08/18 11:42:54;;;;;;;2.40;2.20;;;25.90;99.90;;;;;;5012802;28;20186;-85
2023/08/18 11:45:22;;;;;;;2.50;2.30;;;26.00;99.90;;;;;;4995501;28;20448;-85
2023/08/18 11:48:03;;;;;;;2.50;2.30;;;26.00;99.90;;;;;;5015132;28;20216;-85
2023/08/18 11:50:37;;;;;;;2.13;2.00;;;26.00;99.90;;;;;;4997263;28;20563;-85
2023/08/18 11:53:04;;;;;;;2.40;2.20;;;26.00;99.90;;;;;;5016660;28;20185;-85
2023/08/18 11:55:47;;;;;;;2.40;2.20;;;26.10;99.90;;;;;;4999565;28;20632;-85
2023/08/18 11:58:15;;;;;;;2.73;2.47;;;26.10;99.90;;;;;;4997691;28;20850;-85
2023/08/18 12:00:43;;;;;;;2.67;2.47;;;26.10;99.90;;;;;;4999310;28;20208;-85
2023/08/18 12:03:21;;;;;;;2.87;2.40;;;26.10;99.90;;;;;;4996900;28;20181;-85
2023/08/18 12:05:47;;;;;;;2.60;2.40;;;26.10;99.90;;;;;;4996427;28;20181;-85
2023/08/18 12:08:13;;;;;;;2.63;2.42;;;26.20;99.90;;;;;;5017292;28;20191;-85
2023/08/18 12:10:40;;;;;;;3.03;2.55;;;26.10;99.90;;;;;;4995443;28;20216;-85
2023/08/18 12:13:06;;;;;;;2.67;2.47;;;26.20;99.90;;;;;;5013518;28;20257;-85
2023/08/18 12:15:33;;;;;;;4.43;2.27;;;26.20;99.90;;;;;;5003654;28;20208;-85
2023/08/18 12:17:59;;;;;;;2.70;2.50;;;26.20;99.90;;;;;;4994964;28;20350;-85
2023/08/18 12:20:26;;;;;;;2.65;2.33;;;26.20;99.90;;;;;;4995959;28;20212;-85
2023/08/18 12:22:52;;;;;;;2.87;2.20;;;26.20;99.90;;;;;;4997576;28;20196;-85
2023/08/18 12:25:20;;;;;;;2.77;2.37;;;26.20;99.90;;;;;;4996782;28;20666;-85
2023/08/18 12:27:47;;;;;;;2.77;2.57;;;26.30;99.90;;;;;;5002575;28;20609;-85
2023/08/18 12:30:14;;;;;;;2.70;2.50;;;26.30;99.90;;;;;;5015993;28;20697;-86
2023/08/18 12:32:41;;;;;;;2.60;2.40;;;26.30;99.90;;;;;;5016887;28;20181;-85
2023/08/18 12:35:07;;;;;;;3.40;2.80;;;26.30;99.90;;;;;;5015090;28;20282;-85
2023/08/18 12:37:33;;;;;;;3.03;2.77;;;26.30;99.90;;;;;;5016033;28;20227;-85
2023/08/18 12:39:59;;;;;;;3.78;2.72;;;26.30;99.90;;;;;;5017659;28;20188;-85
2023/08/18 12:42:25;;;;;;;2.90;2.70;;;26.30;99.90;;;;;;4994309;28;20186;-85
2023/08/18 12:44:55;;;;;;;3.07;2.77;;;26.30;99.90;;;;;;4996723;28;20613;-85
2023/08/18 12:47:21;;;;;;;3.47;2.97;;;26.30;99.90;;;;;;5000604;28;20188;-85